sensor_id;sensor_type;location;lat;lon;timestamp;pressure;altitude;pressure_sealevel;temperature
29701;BMP280;57917;51.380;-0.176;2022-12-22T00:06:08;100009.72;;;8.97
29701;BMP280;57917;51.380;-0.176;2022-12-22T00:12:14;100011.59;;;8.97
29701;BMP280;57917;51.380;-0.176;2022-12-22T00:18:20;99987.31;;;8.95
29701;BMP280;57917;51.380;-0.176;2022-12-22T00:24:25;99988.38;;;8.94
29701;BMP280;57917;51.380;-0.176;2022-12-22T00:30:31;99984.19;;;8.93
29701;BMP280;57917;51.380;-0.176;2022-12-22T00:36:36;99997.38;;;8.93
29701;BMP280;57917;51.380;-0.176;2022-12-22T00:42:41;100000.06;;;8.88
29701;BMP280;57917;51.380;-0.176;2022-12-22T00:48:48;100015.91;;;9.16
29701;BMP280;57917;51.380;-0.176;2022-12-22T00:54:54;100011.25;;;9.03
29701;BMP280;57917;51.380;-0.176;2022-12-22T01:00:59;100004.94;;;9.28
29701;BMP280;57917;51.380;-0.176;2022-12-22T01:07:05;99999.91;;;9.31
29701;BMP280;57917;51.380;-0.176;2022-12-22T01:13:14;100002.06;;;9.29
29701;BMP280;57917;51.380;-0.176;2022-12-22T01:19:20;99993.88;;;9.26
29701;BMP280;57917;51.380;-0.176;2022-12-22T01:25:25;99983.56;;;9.29
29701;BMP280;57917;51.380;-0.176;2022-12-22T01:31:31;99987.88;;;9.20
29701;BMP280;57917;51.380;-0.176;2022-12-22T01:37:36;99998.03;;;9.08
29701;BMP280;57917;51.380;-0.176;2022-12-22T01:43:42;100008.31;;;9.05
29701;BMP280;57917;51.380;-0.176;2022-12-22T01:49:47;99994.00;;;8.87
29701;BMP280;57917;51.380;-0.176;2022-12-22T01:55:53;100006.44;;;8.82
29701;BMP280;57917;51.380;-0.176;2022-12-22T02:01:59;100004.00;;;8.90
29701;BMP280;57917;51.380;-0.176;2022-12-22T02:08:27;100022.88;;;8.73
29701;BMP280;57917;51.380;-0.176;2022-12-22T02:14:44;100034.50;;;8.67
29701;BMP280;57917;51.380;-0.176;2022-12-22T02:21:09;100048.41;;;8.83
29701;BMP280;57917;51.380;-0.176;2022-12-22T02:27:16;100031.59;;;8.69
29701;BMP280;57917;51.380;-0.176;2022-12-22T02:33:22;100032.69;;;8.63
29701;BMP280;57917;51.380;-0.176;2022-12-22T02:46:09;100035.91;;;8.55
29701;BMP280;57917;51.380;-0.176;2022-12-22T02:52:32;100018.34;;;8.40
29701;BMP280;57917;51.380;-0.176;2022-12-22T02:58:38;100019.66;;;8.43
29701;BMP280;57917;51.380;-0.176;2022-12-22T03:04:43;100033.72;;;8.28
29701;BMP280;57917;51.380;-0.176;2022-12-22T03:10:48;100062.06;;;7.98
29701;BMP280;57917;51.380;-0.176;2022-12-22T03:16:53;100067.88;;;8.00
29701;BMP280;57917;51.380;-0.176;2022-12-22T03:23:03;100071.03;;;7.97
29701;BMP280;57917;51.380;-0.176;2022-12-22T03:29:09;100071.47;;;8.14
29701;BMP280;57917;51.380;-0.176;2022-12-22T03:34:56;100115.75;;;8.22
29701;BMP280;57917;51.380;-0.176;2022-12-22T03:40:43;100120.41;;;8.35
29701;BMP280;57917;51.380;-0.176;2022-12-22T03:46:30;100153.75;;;8.06
29701;BMP280;57917;51.380;-0.176;2022-12-22T03:52:17;100167.72;;;8.06
29701;BMP280;57917;51.380;-0.176;2022-12-22T03:58:03;100184.03;;;8.23
29701;BMP280;57917;51.380;-0.176;2022-12-22T04:03:50;100190.09;;;8.19
29701;BMP280;57917;51.380;-0.176;2022-12-22T04:09:37;100179.81;;;8.22
29701;BMP280;57917;51.380;-0.176;2022-12-22T04:15:44;100188.75;;;8.31
29701;BMP280;57917;51.380;-0.176;2022-12-22T04:21:31;100174.16;;;8.49
29701;BMP280;57917;51.380;-0.176;2022-12-22T04:27:17;100157.25;;;8.60
29701;BMP280;57917;51.380;-0.176;2022-12-22T04:33:04;100155.25;;;8.32
29701;BMP280;57917;51.380;-0.176;2022-12-22T04:38:51;100161.78;;;8.49
29701;BMP280;57917;51.380;-0.176;2022-12-22T04:44:37;100174.22;;;8.44
29701;BMP280;57917;51.380;-0.176;2022-12-22T04:50:27;100171.78;;;8.52
29701;BMP280;57917;51.380;-0.176;2022-12-22T04:56:14;100166.78;;;8.51
29701;BMP280;57917;51.380;-0.176;2022-12-22T05:02:00;100170.72;;;8.58
29701;BMP280;57917;51.380;-0.176;2022-12-22T05:07:48;100167.78;;;8.55
29701;BMP280;57917;51.380;-0.176;2022-12-22T05:13:34;100182.09;;;8.54
29701;BMP280;57917;51.380;-0.176;2022-12-22T05:19:21;100184.41;;;8.55
29701;BMP280;57917;51.380;-0.176;2022-12-22T05:25:16;100169.16;;;8.47
29701;BMP280;57917;51.380;-0.176;2022-12-22T05:31:05;100168.94;;;8.39
29701;BMP280;57917;51.380;-0.176;2022-12-22T05:36:53;100169.44;;;8.46
29701;BMP280;57917;51.380;-0.176;2022-12-22T05:42:40;100185.31;;;8.26
29701;BMP280;57917;51.380;-0.176;2022-12-22T05:48:27;100172.38;;;8.39
29701;BMP280;57917;51.380;-0.176;2022-12-22T05:54:22;100158.94;;;8.26
29701;BMP280;57917;51.380;-0.176;2022-12-22T06:00:12;100140.44;;;8.36
29701;BMP280;57917;51.380;-0.176;2022-12-22T06:05:59;100147.13;;;8.18
29701;BMP280;57917;51.380;-0.176;2022-12-22T06:11:46;100164.59;;;7.99
29701;BMP280;57917;51.380;-0.176;2022-12-22T06:17:33;100161.94;;;7.94
29701;BMP280;57917;51.380;-0.176;2022-12-22T06:23:27;100164.34;;;7.81
29701;BMP280;57917;51.380;-0.176;2022-12-22T06:29:14;100172.25;;;7.81
29701;BMP280;57917;51.380;-0.176;2022-12-22T06:35:01;100183.56;;;7.71
29701;BMP280;57917;51.380;-0.176;2022-12-22T06:40:47;100155.97;;;7.59
29701;BMP280;57917;51.380;-0.176;2022-12-22T06:46:34;100176.25;;;7.48
29701;BMP280;57917;51.380;-0.176;2022-12-22T06:52:21;100162.25;;;7.32
29701;BMP280;57917;51.380;-0.176;2022-12-22T06:58:07;100162.78;;;7.34
29701;BMP280;57917;51.380;-0.176;2022-12-22T07:03:54;100157.53;;;7.29
29701;BMP280;57917;51.380;-0.176;2022-12-22T07:09:41;100156.19;;;7.27
29701;BMP280;57917;51.380;-0.176;2022-12-22T07:15:28;100161.69;;;7.25
29701;BMP280;57917;51.380;-0.176;2022-12-22T07:21:14;100162.78;;;7.24
29701;BMP280;57917;51.380;-0.176;2022-12-22T07:27:01;100161.19;;;7.23
29701;BMP280;57917;51.380;-0.176;2022-12-22T07:32:48;100152.50;;;7.28
29701;BMP280;57917;51.380;-0.176;2022-12-22T07:38:36;100151.69;;;7.27
29701;BMP280;57917;51.380;-0.176;2022-12-22T07:44:24;100169.13;;;7.33
29701;BMP280;57917;51.380;-0.176;2022-12-22T07:50:16;100169.91;;;7.54
29701;BMP280;57917;51.380;-0.176;2022-12-22T07:56:18;100171.22;;;7.56
29701;BMP280;57917;51.380;-0.176;2022-12-22T08:02:09;100174.59;;;7.82
29701;BMP280;57917;51.380;-0.176;2022-12-22T08:07:57;100162.50;;;7.91
29701;BMP280;57917;51.380;-0.176;2022-12-22T08:13:43;100155.31;;;8.07
29701;BMP280;57917;51.380;-0.176;2022-12-22T08:19:30;100135.75;;;8.28
29701;BMP280;57917;51.380;-0.176;2022-12-22T08:25:18;100133.38;;;8.31
29701;BMP280;57917;51.380;-0.176;2022-12-22T08:31:08;100129.94;;;8.31
29701;BMP280;57917;51.380;-0.176;2022-12-22T08:36:57;100126.41;;;8.50
29701;BMP280;57917;51.380;-0.176;2022-12-22T08:42:45;100134.50;;;8.64
29701;BMP280;57917;51.380;-0.176;2022-12-22T08:48:33;100125.00;;;8.68
29701;BMP280;57917;51.380;-0.176;2022-12-22T08:54:20;100127.78;;;8.87
29701;BMP280;57917;51.380;-0.176;2022-12-22T09:00:08;100131.16;;;9.02
29701;BMP280;57917;51.380;-0.176;2022-12-22T09:06:01;100125.72;;;9.17
29701;BMP280;57917;51.380;-0.176;2022-12-22T09:11:49;100128.22;;;9.32
29701;BMP280;57917;51.380;-0.176;2022-12-22T09:17:36;100122.00;;;9.52
29701;BMP280;57917;51.380;-0.176;2022-12-22T09:23:24;100118.50;;;9.56
29701;BMP280;57917;51.380;-0.176;2022-12-22T09:29:11;100123.44;;;9.63
29701;BMP280;57917;51.380;-0.176;2022-12-22T09:35:03;100120.94;;;9.76
29701;BMP280;57917;51.380;-0.176;2022-12-22T09:40:50;100112.94;;;9.58
29701;BMP280;57917;51.380;-0.176;2022-12-22T09:46:36;100105.69;;;9.68
29701;BMP280;57917;51.380;-0.176;2022-12-22T09:58:31;100093.34;;;9.87
29701;BMP280;57917;51.380;-0.176;2022-12-22T10:10:32;100072.34;;;10.15
29701;BMP280;57917;51.380;-0.176;2022-12-22T10:16:27;100049.78;;;10.41
29701;BMP280;57917;51.380;-0.176;2022-12-22T10:28:16;100043.13;;;10.62
29701;BMP280;57917;51.380;-0.176;2022-12-22T10:34:13;100053.97;;;10.79
29701;BMP280;57917;51.380;-0.176;2022-12-22T10:40:31;100060.47;;;11.00
29701;BMP280;57917;51.380;-0.176;2022-12-22T10:52:26;100047.75;;;11.29
29701;BMP280;57917;51.380;-0.176;2022-12-22T10:58:18;100035.63;;;11.55
29701;BMP280;57917;51.380;-0.176;2022-12-22T11:04:25;100028.94;;;11.58
29701;BMP280;57917;51.380;-0.176;2022-12-22T11:16:41;100006.31;;;11.87
29701;BMP280;57917;51.380;-0.176;2022-12-22T11:22:40;100010.69;;;12.05
29701;BMP280;57917;51.380;-0.176;2022-12-22T11:40:38;99981.56;;;12.14
29701;BMP280;57917;51.380;-0.176;2022-12-22T11:46:33;99983.81;;;12.20
29701;BMP280;57917;51.380;-0.176;2022-12-22T12:04:41;99971.84;;;12.31
29701;BMP280;57917;51.380;-0.176;2022-12-22T12:29:18;99903.41;;;12.50
29701;BMP280;57917;51.380;-0.176;2022-12-22T12:41:32;99896.44;;;12.63
29701;BMP280;57917;51.380;-0.176;2022-12-22T12:47:34;99893.47;;;12.64
29701;BMP280;57917;51.380;-0.176;2022-12-22T12:53:29;99892.53;;;12.69
29701;BMP280;57917;51.380;-0.176;2022-12-22T13:05:52;99901.72;;;12.54
29701;BMP280;57917;51.380;-0.176;2022-12-22T13:11:44;99902.97;;;12.57
29701;BMP280;57917;51.380;-0.176;2022-12-22T13:17:51;99892.97;;;12.54
29701;BMP280;57917;51.380;-0.176;2022-12-22T13:29:46;99884.53;;;12.52
29701;BMP280;57917;51.380;-0.176;2022-12-22T13:35:37;99888.28;;;12.51
29701;BMP280;57917;51.380;-0.176;2022-12-22T13:41:33;99897.78;;;12.43
29701;BMP280;57917;51.380;-0.176;2022-12-22T13:47:20;99910.00;;;12.53
29701;BMP280;57917;51.380;-0.176;2022-12-22T13:53:15;99891.47;;;12.70
29701;BMP280;57917;51.380;-0.176;2022-12-22T14:05:17;99880.84;;;12.70
29701;BMP280;57917;51.380;-0.176;2022-12-22T14:11:07;99873.47;;;12.58
29701;BMP280;57917;51.380;-0.176;2022-12-22T14:16:57;99880.69;;;12.66
29701;BMP280;57917;51.380;-0.176;2022-12-22T14:22:49;99884.09;;;12.58
29701;BMP280;57917;51.380;-0.176;2022-12-22T14:28:45;99884.28;;;12.62
29701;BMP280;57917;51.380;-0.176;2022-12-22T14:34:36;99880.34;;;12.59
29701;BMP280;57917;51.380;-0.176;2022-12-22T14:40:38;99869.09;;;12.54
29701;BMP280;57917;51.380;-0.176;2022-12-22T14:46:26;99871.75;;;12.62
29701;BMP280;57917;51.380;-0.176;2022-12-22T14:52:43;99871.19;;;12.74
29701;BMP280;57917;51.380;-0.176;2022-12-22T14:58:33;99881.03;;;12.73
29701;BMP280;57917;51.380;-0.176;2022-12-22T15:04:23;99881.91;;;12.60
29701;BMP280;57917;51.380;-0.176;2022-12-22T15:10:11;99888.75;;;12.53
29701;BMP280;57917;51.380;-0.176;2022-12-22T15:16:05;99893.16;;;12.57
29701;BMP280;57917;51.380;-0.176;2022-12-22T15:21:51;99894.69;;;12.58
29701;BMP280;57917;51.380;-0.176;2022-12-22T15:27:38;99877.31;;;12.44
29701;BMP280;57917;51.380;-0.176;2022-12-22T15:33:25;99885.31;;;12.52
29701;BMP280;57917;51.380;-0.176;2022-12-22T15:39:15;99894.44;;;12.38
29701;BMP280;57917;51.380;-0.176;2022-12-22T15:45:02;99893.44;;;12.47
29701;BMP280;57917;51.380;-0.176;2022-12-22T15:50:50;99878.09;;;12.44
29701;BMP280;57917;51.380;-0.176;2022-12-22T15:56:38;99858.69;;;12.35
29701;BMP280;57917;51.380;-0.176;2022-12-22T16:02:25;99877.41;;;12.30
29701;BMP280;57917;51.380;-0.176;2022-12-22T16:08:27;99869.28;;;12.35
29701;BMP280;57917;51.380;-0.176;2022-12-22T16:14:17;99872.16;;;12.39
29701;BMP280;57917;51.380;-0.176;2022-12-22T16:20:05;99867.13;;;12.37
29701;BMP280;57917;51.380;-0.176;2022-12-22T16:25:53;99876.97;;;12.37
29701;BMP280;57917;51.380;-0.176;2022-12-22T16:31:47;99886.53;;;12.46
29701;BMP280;57917;51.380;-0.176;2022-12-22T16:37:35;99884.78;;;12.42
29701;BMP280;57917;51.380;-0.176;2022-12-22T16:43:28;99891.84;;;12.46
29701;BMP280;57917;51.380;-0.176;2022-12-22T16:49:33;99890.28;;;12.45
29701;BMP280;57917;51.380;-0.176;2022-12-22T16:55:20;99894.63;;;12.41
29701;BMP280;57917;51.380;-0.176;2022-12-22T17:01:16;99915.69;;;12.38
29701;BMP280;57917;51.380;-0.176;2022-12-22T17:07:08;99934.69;;;12.31
29701;BMP280;57917;51.380;-0.176;2022-12-22T17:12:56;99933.31;;;12.34
29701;BMP280;57917;51.380;-0.176;2022-12-22T17:18:44;99926.31;;;12.38
29701;BMP280;57917;51.380;-0.176;2022-12-22T17:24:31;99951.34;;;12.23
29701;BMP280;57917;51.380;-0.176;2022-12-22T17:30:20;99940.66;;;12.37
29701;BMP280;57917;51.380;-0.176;2022-12-22T17:36:32;99932.75;;;12.45
29701;BMP280;57917;51.380;-0.176;2022-12-22T17:42:21;99939.50;;;12.29
29701;BMP280;57917;51.380;-0.176;2022-12-22T17:48:10;99937.72;;;12.38
29701;BMP280;57917;51.380;-0.176;2022-12-22T17:53:57;99942.53;;;12.36
29701;BMP280;57917;51.380;-0.176;2022-12-22T17:59:45;99944.38;;;12.36
29701;BMP280;57917;51.380;-0.176;2022-12-22T18:05:39;99957.13;;;12.25
29701;BMP280;57917;51.380;-0.176;2022-12-22T18:11:28;99969.91;;;12.23
29701;BMP280;57917;51.380;-0.176;2022-12-22T18:17:29;99971.50;;;12.24
29701;BMP280;57917;51.380;-0.176;2022-12-22T18:23:25;99967.69;;;12.17
29701;BMP280;57917;51.380;-0.176;2022-12-22T18:29:14;99990.91;;;12.33
29701;BMP280;57917;51.380;-0.176;2022-12-22T18:35:02;99982.47;;;12.09
29701;BMP280;57917;51.380;-0.176;2022-12-22T18:40:49;99984.41;;;12.17
29701;BMP280;57917;51.380;-0.176;2022-12-22T18:46:36;99986.63;;;12.02
29701;BMP280;57917;51.380;-0.176;2022-12-22T18:52:23;99982.84;;;12.16
29701;BMP280;57917;51.380;-0.176;2022-12-22T18:58:13;99974.84;;;11.94
29701;BMP280;57917;51.380;-0.176;2022-12-22T19:04:00;99986.94;;;12.22
29701;BMP280;57917;51.380;-0.176;2022-12-22T19:09:48;99979.09;;;12.17
29701;BMP280;57917;51.380;-0.176;2022-12-22T19:15:36;99983.41;;;12.35
29701;BMP280;57917;51.380;-0.176;2022-12-22T19:21:24;99990.31;;;12.36
29701;BMP280;57917;51.380;-0.176;2022-12-22T19:27:22;99992.09;;;12.49
29701;BMP280;57917;51.380;-0.176;2022-12-22T19:33:17;99994.81;;;12.58
29701;BMP280;57917;51.380;-0.176;2022-12-22T19:39:06;100006.94;;;12.28
29701;BMP280;57917;51.380;-0.176;2022-12-22T19:44:53;100031.66;;;12.15
29701;BMP280;57917;51.380;-0.176;2022-12-22T19:50:40;100021.34;;;12.36
29701;BMP280;57917;51.380;-0.176;2022-12-22T19:56:27;100032.53;;;12.24
29701;BMP280;57917;51.380;-0.176;2022-12-22T20:02:23;100024.69;;;12.19
29701;BMP280;57917;51.380;-0.176;2022-12-22T20:08:12;100019.25;;;12.24
29701;BMP280;57917;51.380;-0.176;2022-12-22T20:13:59;100014.72;;;12.25
29701;BMP280;57917;51.380;-0.176;2022-12-22T20:19:46;100021.91;;;12.24
29701;BMP280;57917;51.380;-0.176;2022-12-22T20:25:46;100029.91;;;12.11
29701;BMP280;57917;51.380;-0.176;2022-12-22T20:31:33;100032.69;;;12.06
29701;BMP280;57917;51.380;-0.176;2022-12-22T20:37:20;100042.19;;;12.20
29701;BMP280;57917;51.380;-0.176;2022-12-22T20:43:12;100040.25;;;12.34
29701;BMP280;57917;51.380;-0.176;2022-12-22T20:49:01;100047.84;;;12.27
29701;BMP280;57917;51.380;-0.176;2022-12-22T20:54:49;100035.09;;;12.16
29701;BMP280;57917;51.380;-0.176;2022-12-22T21:00:37;100043.56;;;12.18
29701;BMP280;57917;51.380;-0.176;2022-12-22T21:06:27;100061.44;;;12.12
29701;BMP280;57917;51.380;-0.176;2022-12-22T21:12:14;100060.13;;;12.23
29701;BMP280;57917;51.380;-0.176;2022-12-22T21:18:02;100068.06;;;12.37
29701;BMP280;57917;51.380;-0.176;2022-12-22T21:23:51;100076.50;;;12.39
29701;BMP280;57917;51.380;-0.176;2022-12-22T21:29:56;100070.81;;;12.32
29701;BMP280;57917;51.380;-0.176;2022-12-22T21:35:43;100080.63;;;11.96
29701;BMP280;57917;51.380;-0.176;2022-12-22T21:41:30;100087.22;;;11.98
29701;BMP280;57917;51.380;-0.176;2022-12-22T21:47:35;100113.09;;;12.28
29701;BMP280;57917;51.380;-0.176;2022-12-22T21:53:22;100105.50;;;12.35
29701;BMP280;57917;51.380;-0.176;2022-12-22T21:59:09;100094.22;;;12.30
29701;BMP280;57917;51.380;-0.176;2022-12-22T22:04:56;100101.66;;;12.06
29701;BMP280;57917;51.380;-0.176;2022-12-22T22:10:44;100112.69;;;12.21
29701;BMP280;57917;51.380;-0.176;2022-12-22T22:16:31;100117.84;;;12.04
29701;BMP280;57917;51.380;-0.176;2022-12-22T22:22:18;100119.34;;;11.83
29701;BMP280;57917;51.380;-0.176;2022-12-22T22:28:09;100112.56;;;11.91
29701;BMP280;57917;51.380;-0.176;2022-12-22T22:33:56;100109.66;;;12.14
29701;BMP280;57917;51.380;-0.176;2022-12-22T22:39:43;100106.69;;;12.07
29701;BMP280;57917;51.380;-0.176;2022-12-22T22:45:30;100135.13;;;12.15
29701;BMP280;57917;51.380;-0.176;2022-12-22T22:51:21;100121.00;;;12.06
29701;BMP280;57917;51.380;-0.176;2022-12-22T22:57:08;100140.94;;;12.17
29701;BMP280;57917;51.380;-0.176;2022-12-22T23:02:59;100138.88;;;12.01
29701;BMP280;57917;51.380;-0.176;2022-12-22T23:08:49;100139.06;;;12.04
29701;BMP280;57917;51.380;-0.176;2022-12-22T23:14:36;100140.25;;;11.98
29701;BMP280;57917;51.380;-0.176;2022-12-22T23:20:23;100141.06;;;11.99
29701;BMP280;57917;51.380;-0.176;2022-12-22T23:26:09;100144.03;;;11.70
29701;BMP280;57917;51.380;-0.176;2022-12-22T23:31:56;100147.25;;;11.81
29701;BMP280;57917;51.380;-0.176;2022-12-22T23:37:43;100164.44;;;11.70
29701;BMP280;57917;51.380;-0.176;2022-12-22T23:43:33;100174.66;;;11.76
29701;BMP280;57917;51.380;-0.176;2022-12-22T23:49:19;100185.03;;;11.59
29701;BMP280;57917;51.380;-0.176;2022-12-22T23:55:06;100178.91;;;11.45
